createdAt,value
2023-02-20T00:01:29.225Z,-0.19
2023-02-20T00:03:56.632Z,-0.23
2023-02-20T00:06:23.642Z,-0.22
2023-02-20T00:08:50.758Z,-0.24
2023-02-20T00:11:18.093Z,-0.24
2023-02-20T00:13:49.567Z,-0.25
2023-02-20T00:16:16.942Z,-0.26
2023-02-20T00:18:44.759Z,-0.26
2023-02-20T00:21:11.776Z,-0.31
2023-02-20T00:23:38.930Z,-0.29
2023-02-20T00:26:09.958Z,-0.34
2023-02-20T00:28:42.210Z,-0.35
2023-02-20T00:31:13.818Z,-0.39
2023-02-20T00:33:41.350Z,-0.37
2023-02-20T00:36:08.651Z,-0.40
2023-02-20T00:38:35.896Z,-0.44
2023-02-20T00:41:02.932Z,-0.43
2023-02-20T00:43:31.791Z,-0.43
2023-02-20T00:45:58.655Z,-0.45
2023-02-20T00:48:25.880Z,-0.44
2023-02-20T00:50:52.725Z,-0.47
2023-02-20T00:53:19.923Z,-0.46
2023-02-20T00:55:46.781Z,-0.49
2023-02-20T00:58:13.987Z,-0.52
2023-02-20T01:00:40.852Z,-0.51
2023-02-20T01:03:08.008Z,-0.54
2023-02-20T01:05:34.937Z,-0.52
2023-02-20T01:08:02.055Z,-0.53
2023-02-20T01:10:28.928Z,-0.53
2023-02-20T01:12:56.138Z,-0.55
2023-02-20T01:15:23.020Z,-0.54
2023-02-20T01:17:50.128Z,-0.54
2023-02-20T01:20:17.044Z,-0.54
2023-02-20T01:22:44.218Z,-0.56
2023-02-20T01:25:11.274Z,-0.59
2023-02-20T01:27:38.518Z,-0.61
2023-02-20T01:30:06.221Z,-0.63
2023-02-20T01:32:33.525Z,-0.63
2023-02-20T01:35:00.402Z,-0.59
2023-02-20T01:37:27.618Z,-0.59
2023-02-20T01:39:54.527Z,-0.58
2023-02-20T01:42:25.036Z,-0.59
2023-02-20T01:44:52.020Z,-0.57
2023-02-20T01:47:21.691Z,-0.55
2023-02-20T01:49:55.085Z,-0.55
2023-02-20T01:52:24.814Z,-0.57
2023-02-20T01:55:26.071Z,-0.54
2023-02-20T01:58:15.318Z,-0.53
2023-02-20T02:00:42.108Z,-0.53
2023-02-20T02:03:16.143Z,-0.49
2023-02-20T02:05:47.253Z,-0.49
2023-02-20T02:08:16.375Z,-0.44
2023-02-20T02:11:02.724Z,-0.43
2023-02-20T02:13:34.559Z,-0.38
2023-02-20T02:16:05.777Z,-0.39
2023-02-20T02:19:10.467Z,-0.36
2023-02-20T02:22:01.652Z,-0.36
2023-02-20T02:24:56.154Z,-0.30
2023-02-20T02:27:46.711Z,-0.30
2023-02-20T02:30:29.583Z,-0.26
2023-02-20T02:33:15.124Z,-0.23
2023-02-20T02:36:20.726Z,-0.25
2023-02-20T02:39:24.904Z,-0.21
2023-02-20T02:42:06.927Z,-0.18
2023-02-20T02:44:41.390Z,-0.18
2023-02-20T02:47:17.433Z,-0.13
2023-02-20T02:50:05.373Z,-0.11
2023-02-20T02:52:48.797Z,-0.10
2023-02-20T02:55:21.825Z,-0.04
2023-02-20T02:57:49.582Z,-0.03
2023-02-20T03:00:18.849Z,0.01
2023-02-20T03:03:18.317Z,-0.02
2023-02-20T03:06:06.349Z,-0.01
2023-02-20T03:11:29.236Z,-0.01
2023-02-20T03:14:26.654Z,0.03
2023-02-20T03:17:41.868Z,0.06
2023-02-20T03:20:14.367Z,0.07
2023-02-20T03:22:53.266Z,0.07
2023-02-20T03:25:27.779Z,0.10
2023-02-20T03:28:11.927Z,0.12
2023-02-20T03:30:46.115Z,0.14
2023-02-20T03:33:38.318Z,0.16
2023-02-20T03:36:29.286Z,0.13
2023-02-20T03:39:25.112Z,0.12
2023-02-20T03:42:12.590Z,0.14
2023-02-20T03:44:39.603Z,0.18
2023-02-20T03:47:09.939Z,0.16
2023-02-20T03:49:40.701Z,0.16
2023-02-20T03:52:08.236Z,0.17
2023-02-20T03:54:36.676Z,0.18
2023-02-20T03:57:08.757Z,0.17
2023-02-20T03:59:38.742Z,0.16
2023-02-20T04:02:15.237Z,0.18
2023-02-20T04:04:49.778Z,0.22
2023-02-20T04:07:25.945Z,0.23
2023-02-20T04:09:59.043Z,0.20
2023-02-20T04:12:30.674Z,0.24
2023-02-20T04:14:59.634Z,0.22
2023-02-20T04:17:32.573Z,0.19
2023-02-20T04:19:59.437Z,0.18
2023-02-20T04:22:31.515Z,0.17
2023-02-20T04:25:02.820Z,0.18
2023-02-20T04:27:31.746Z,0.17
2023-02-20T04:29:58.661Z,0.14
2023-02-20T04:32:25.822Z,0.12
2023-02-20T04:34:52.712Z,0.12
2023-02-20T04:37:20.593Z,0.14
2023-02-20T04:39:48.209Z,0.12
2023-02-20T04:42:15.497Z,0.12
2023-02-20T04:44:43.302Z,0.14
2023-02-20T04:47:16.970Z,0.11
2023-02-20T04:49:44.368Z,0.09
2023-02-20T04:52:11.574Z,0.04
2023-02-20T04:54:38.461Z,-0.01
2023-02-20T04:57:05.769Z,0.02
2023-02-20T04:59:32.687Z,-0.05
2023-02-20T05:02:02.086Z,-0.06
2023-02-20T05:04:29.195Z,-0.09
2023-02-20T05:06:56.836Z,-0.06
2023-02-20T05:09:24.683Z,-0.06
2023-02-20T05:11:51.962Z,-0.09
2023-02-20T05:14:19.340Z,-0.06
2023-02-20T05:16:47.331Z,-0.01
2023-02-20T05:19:15.159Z,0.00
2023-02-20T05:22:02.742Z,-0.03
2023-02-20T05:24:30.864Z,-0.05
2023-02-20T05:26:58.520Z,-0.09
2023-02-20T05:29:25.570Z,-0.09
2023-02-20T05:31:52.961Z,-0.09
2023-02-20T05:34:22.762Z,-0.08
2023-02-20T05:36:50.139Z,-0.10
2023-02-20T05:39:17.228Z,-0.11
2023-02-20T05:41:45.020Z,-0.11
2023-02-20T05:44:12.141Z,-0.04
2023-02-20T05:46:41.663Z,0.04
2023-02-20T05:49:10.011Z,0.10
2023-02-20T05:51:37.426Z,0.22
2023-02-20T05:54:05.625Z,0.41
2023-02-20T05:56:33.341Z,0.64
2023-02-20T05:59:01.265Z,0.84
2023-02-20T06:01:30.922Z,1.03
2023-02-20T06:03:58.606Z,1.33
2023-02-20T06:06:35.341Z,1.56
2023-02-20T06:09:03.559Z,1.84
2023-02-20T06:11:30.801Z,1.98
2023-02-20T06:13:58.013Z,2.21
2023-02-20T06:16:27.935Z,2.54
2023-02-20T06:18:56.066Z,2.82
2023-02-20T06:21:24.716Z,2.98
2023-02-20T06:23:53.423Z,3.02
2023-02-20T06:26:22.049Z,3.21
2023-02-20T06:28:50.828Z,3.38
2023-02-20T06:31:27.265Z,3.60
2023-02-20T06:33:54.824Z,4.01
2023-02-20T06:36:25.108Z,4.26
2023-02-20T06:38:52.392Z,4.29
2023-02-20T06:41:19.816Z,4.29
2023-02-20T06:43:46.810Z,4.49
2023-02-20T06:46:14.523Z,4.69
2023-02-20T06:48:50.106Z,4.92
2023-02-20T06:51:21.626Z,5.25
2023-02-20T06:53:50.024Z,5.45
2023-02-20T06:56:20.313Z,5.58
2023-02-20T06:58:48.493Z,5.71
2023-02-20T07:01:19.879Z,5.87
2023-02-20T07:03:51.188Z,6.27
2023-02-20T07:06:18.384Z,6.33
2023-02-20T07:08:45.324Z,6.41
2023-02-20T07:11:13.273Z,6.33
2023-02-20T07:13:40.572Z,6.37
2023-02-20T07:16:08.110Z,6.31
2023-02-20T07:18:35.272Z,6.31
2023-02-20T07:21:02.588Z,6.31
2023-02-20T07:23:29.606Z,6.70
2023-02-20T07:25:57.091Z,7.27
2023-02-20T07:28:24.136Z,7.44
2023-02-20T07:30:51.377Z,7.37
2023-02-20T07:33:19.142Z,7.61
2023-02-20T07:35:46.845Z,8.01
2023-02-20T07:38:14.164Z,8.47
2023-02-20T07:40:41.509Z,8.92
2023-02-20T07:43:08.649Z,9.05
2023-02-20T07:45:35.843Z,9.16
2023-02-20T07:48:02.764Z,8.65
2023-02-20T07:50:30.043Z,8.25
2023-02-20T07:52:56.932Z,8.02
2023-02-20T07:55:24.073Z,8.48
2023-02-20T07:57:54.465Z,8.36
2023-02-20T08:00:21.950Z,7.82
2023-02-20T08:02:48.971Z,7.65
2023-02-20T08:05:16.415Z,7.66
2023-02-20T08:07:48.841Z,7.51
2023-02-20T08:10:18.257Z,7.28
2023-02-20T08:12:46.242Z,7.39
2023-02-20T08:15:13.280Z,7.82
2023-02-20T08:17:46.849Z,8.25
2023-02-20T08:20:16.511Z,8.93
2023-02-20T08:22:47.612Z,9.36
2023-02-20T08:25:15.498Z,9.64
2023-02-20T08:27:44.928Z,9.31
2023-02-20T08:30:18.863Z,9.08
2023-02-20T08:32:46.166Z,8.83
2023-02-20T08:35:13.126Z,8.86
2023-02-20T08:37:40.341Z,9.23
2023-02-20T08:40:08.907Z,9.71
2023-02-20T08:42:36.101Z,9.48
2023-02-20T08:45:06.743Z,9.32
2023-02-20T08:47:34.396Z,9.59
2023-02-20T08:50:01.406Z,9.69
2023-02-20T08:52:28.779Z,9.00
2023-02-20T08:54:55.694Z,8.70
2023-02-20T08:57:22.878Z,8.26
2023-02-20T08:59:49.836Z,7.72
2023-02-20T09:02:20.598Z,7.29
2023-02-20T09:04:48.212Z,6.98
2023-02-20T09:07:15.489Z,6.57
2023-02-20T09:09:42.508Z,6.41
2023-02-20T09:12:10.150Z,6.01
2023-02-20T09:14:38.008Z,5.54
2023-02-20T09:17:05.998Z,5.29
2023-02-20T09:19:33.203Z,5.01
2023-02-20T09:22:00.814Z,5.04
2023-02-20T09:24:34.475Z,5.26
2023-02-20T09:27:09.030Z,5.59
2023-02-20T09:29:41.029Z,5.70
2023-02-20T09:32:08.377Z,5.98
2023-02-20T09:34:35.389Z,6.50
2023-02-20T09:37:02.938Z,6.90
2023-02-20T09:39:29.908Z,7.36
2023-02-20T09:42:24.073Z,7.80
2023-02-20T09:45:08.881Z,7.87
2023-02-20T09:47:50.393Z,7.66
2023-02-20T09:50:30.947Z,7.67
2023-02-20T09:53:06.011Z,7.55
2023-02-20T09:55:40.448Z,7.65
2023-02-20T09:58:17.200Z,7.66
2023-02-20T10:00:44.479Z,7.47
2023-02-20T10:03:27.204Z,7.01
2023-02-20T10:05:55.928Z,6.52
2023-02-20T10:08:23.836Z,6.16
2023-02-20T10:10:52.169Z,5.80
2023-02-20T10:13:52.708Z,5.59
2023-02-20T10:17:10.818Z,5.57
2023-02-20T10:19:41.131Z,5.37
2023-02-20T10:22:25.335Z,5.32
2023-02-20T10:24:58.454Z,5.30
2023-02-20T10:27:51.240Z,5.33
2023-02-20T10:30:26.014Z,5.28
2023-02-20T10:33:22.291Z,5.25
2023-02-20T10:36:00.404Z,5.25
2023-02-20T10:38:34.347Z,5.37
2023-02-20T10:41:19.614Z,5.34
2023-02-20T10:43:55.775Z,5.08
2023-02-20T10:46:48.591Z,5.02
2023-02-20T10:49:28.072Z,4.92
2023-02-20T10:52:00.495Z,4.86
2023-02-20T10:54:44.857Z,4.90
2023-02-20T10:57:22.928Z,4.86
2023-02-20T10:59:54.404Z,4.92
2023-02-20T11:02:25.571Z,5.03
2023-02-20T11:05:01.656Z,5.14
2023-02-20T11:07:29.083Z,5.32
2023-02-20T11:09:56.001Z,5.37
2023-02-20T11:12:27.567Z,5.53
2023-02-20T11:14:57.236Z,5.71
2023-02-20T11:17:28.000Z,5.86
2023-02-20T11:19:57.492Z,6.02
2023-02-20T11:22:44.964Z,6.02
2023-02-20T11:25:34.456Z,6.15
2023-02-20T11:28:24.456Z,6.17
2023-02-20T11:31:03.578Z,6.16
2023-02-20T11:33:34.550Z,6.12
2023-02-20T11:36:20.103Z,5.96
2023-02-20T11:38:49.010Z,5.84
2023-02-20T11:41:36.633Z,5.57
2023-02-20T11:44:11.152Z,5.56
2023-02-20T11:46:38.396Z,5.58
2023-02-20T11:49:11.746Z,5.47
2023-02-20T11:51:46.632Z,5.32
2023-02-20T11:54:25.654Z,5.15
2023-02-20T11:56:53.670Z,4.98
2023-02-20T11:59:29.798Z,4.77
2023-02-20T12:02:12.607Z,4.63
2023-02-20T12:04:39.820Z,4.60
2023-02-20T12:07:27.129Z,4.43
2023-02-20T12:09:59.932Z,4.34
2023-02-20T12:12:32.671Z,4.29
2023-02-20T12:14:59.893Z,4.18
2023-02-20T12:17:43.369Z,4.12
2023-02-20T12:20:19.638Z,3.93
2023-02-20T12:23:17.044Z,3.78
2023-02-20T12:26:02.344Z,3.68
2023-02-20T12:29:10.058Z,3.59
2023-02-20T12:31:40.060Z,3.57
2023-02-20T12:34:18.855Z,3.49
2023-02-20T12:37:19.695Z,3.47
2023-02-20T12:40:04.598Z,3.45
2023-02-20T12:42:34.714Z,3.36
2023-02-20T12:45:28.712Z,3.31
2023-02-20T12:48:16.789Z,3.29
2023-02-20T12:50:59.799Z,3.23
2023-02-20T12:53:52.793Z,3.20
2023-02-20T12:56:47.434Z,3.11
2023-02-20T12:59:28.870Z,3.13
2023-02-20T13:01:59.225Z,3.07
2023-02-20T13:04:48.661Z,3.02
2023-02-20T13:07:25.350Z,2.88
2023-02-20T13:10:18.822Z,2.59
2023-02-20T13:12:45.732Z,2.42
2023-02-20T13:15:34.722Z,2.23
2023-02-20T13:18:04.298Z,2.13
2023-02-20T13:20:44.773Z,2.06
2023-02-20T13:23:17.807Z,2.03
2023-02-20T13:25:46.600Z,2.08
2023-02-20T13:28:13.442Z,2.05
2023-02-20T13:30:41.247Z,2.03
2023-02-20T13:33:28.923Z,2.03
2023-02-20T13:35:57.368Z,2.09
2023-02-20T13:38:26.811Z,2.16
2023-02-20T13:40:56.691Z,2.15
2023-02-20T13:43:23.617Z,2.17
2023-02-20T13:46:14.874Z,2.22
2023-02-20T13:48:48.431Z,2.24
2023-02-20T13:51:15.795Z,2.35
2023-02-20T13:53:45.591Z,2.42
2023-02-20T13:56:21.600Z,2.46
2023-02-20T13:58:50.762Z,2.50
2023-02-20T14:01:18.165Z,2.54
2023-02-20T14:03:45.164Z,2.59
2023-02-20T14:06:15.913Z,2.61
2023-02-20T14:08:45.336Z,2.64
2023-02-20T14:11:23.051Z,2.60
2023-02-20T14:13:52.450Z,2.64
2023-02-20T14:16:32.916Z,2.63
2023-02-20T14:19:02.654Z,2.64
2023-02-20T14:21:30.295Z,2.66
2023-02-20T14:23:57.906Z,2.73
2023-02-20T14:26:29.518Z,2.76
2023-02-20T14:28:58.604Z,2.79
2023-02-20T14:31:28.336Z,2.82
2023-02-20T14:33:58.925Z,2.86
2023-02-20T14:36:46.813Z,2.91
2023-02-20T14:39:47.507Z,2.96
2023-02-20T14:42:18.534Z,3.01
2023-02-20T14:44:50.285Z,2.99
2023-02-20T14:47:18.678Z,3.07
2023-02-20T14:49:45.966Z,3.18
2023-02-20T14:52:21.500Z,3.24
2023-02-20T14:55:00.862Z,3.30
2023-02-20T14:57:28.259Z,3.39
2023-02-20T15:00:17.081Z,3.43
2023-02-20T15:02:47.093Z,3.54
2023-02-20T15:05:19.149Z,3.63
2023-02-20T15:07:47.550Z,3.70
2023-02-20T15:10:38.420Z,3.73
2023-02-20T15:13:14.580Z,3.71
2023-02-20T15:15:47.060Z,3.78
2023-02-20T15:18:35.708Z,3.84
2023-02-20T15:21:04.720Z,3.92
2023-02-20T15:23:39.823Z,3.95
2023-02-20T15:26:29.437Z,3.96
2023-02-20T15:29:28.316Z,4.00
2023-02-20T15:31:58.572Z,3.99
2023-02-20T15:34:29.101Z,3.96
2023-02-20T15:36:56.877Z,3.94
2023-02-20T15:39:23.809Z,3.99
2023-02-20T15:41:51.157Z,4.07
2023-02-20T15:44:18.109Z,4.15
2023-02-20T15:46:46.136Z,4.15
2023-02-20T15:49:20.418Z,4.16
2023-02-20T15:51:52.454Z,4.11
2023-02-20T15:54:21.816Z,4.12
2023-02-20T15:56:49.118Z,4.10
2023-02-20T15:59:16.876Z,4.14
2023-02-20T16:01:44.368Z,4.13
2023-02-20T16:04:15.935Z,4.14
2023-02-20T16:06:44.282Z,4.20
2023-02-20T16:09:11.711Z,4.22
2023-02-20T16:11:45.045Z,4.16
2023-02-20T16:14:16.057Z,4.12
2023-02-20T16:16:48.381Z,4.20
2023-02-20T16:19:26.070Z,4.27
2023-02-20T16:22:00.127Z,4.31
2023-02-20T16:24:27.307Z,4.31
2023-02-20T16:26:54.719Z,4.38
2023-02-20T16:29:26.826Z,4.42
2023-02-20T16:31:54.146Z,4.51
2023-02-20T16:34:23.264Z,4.55
2023-02-20T16:36:51.669Z,4.55
2023-02-20T16:39:26.232Z,4.54
2023-02-20T16:41:55.035Z,4.58
2023-02-20T16:44:29.172Z,4.64
2023-02-20T16:46:56.414Z,4.67
2023-02-20T16:49:23.396Z,4.72
2023-02-20T16:51:59.079Z,4.78
2023-02-20T16:54:26.018Z,4.85
2023-02-20T16:56:53.248Z,4.90
2023-02-20T16:59:22.012Z,4.92
2023-02-20T17:01:49.461Z,4.97
2023-02-20T17:04:17.676Z,4.95
2023-02-20T17:06:44.844Z,5.00
2023-02-20T17:09:11.762Z,5.02
2023-02-20T17:11:38.954Z,5.11
2023-02-20T17:14:05.779Z,5.19
2023-02-20T17:16:32.937Z,5.27
2023-02-20T17:18:59.992Z,5.30
2023-02-20T17:21:27.230Z,5.34
2023-02-20T17:23:54.076Z,5.49
2023-02-20T17:26:21.312Z,5.51
2023-02-20T17:28:48.578Z,5.45
2023-02-20T17:31:16.250Z,5.45
2023-02-20T17:33:43.542Z,5.45
2023-02-20T17:36:10.802Z,5.42
2023-02-20T17:38:42.484Z,5.48
2023-02-20T17:41:09.665Z,5.52
2023-02-20T17:43:37.941Z,5.60
2023-02-20T17:46:05.381Z,5.58
2023-02-20T17:48:32.262Z,5.58
2023-02-20T17:50:59.612Z,5.59
2023-02-20T17:53:26.529Z,5.58
2023-02-20T17:55:53.732Z,5.65
2023-02-20T17:58:20.666Z,5.65
2023-02-20T18:00:47.910Z,5.68
2023-02-20T18:03:14.877Z,5.80
2023-02-20T18:05:42.085Z,5.78
2023-02-20T18:08:09.152Z,5.77
2023-02-20T18:10:36.363Z,5.84
2023-02-20T18:13:03.346Z,5.89
2023-02-20T18:15:34.655Z,5.87
2023-02-20T18:18:02.758Z,5.90
2023-02-20T18:20:30.575Z,5.93
2023-02-20T18:22:58.721Z,5.97
2023-02-20T18:25:39.678Z,6.00
2023-02-20T18:28:07.617Z,6.07
2023-02-20T18:30:34.924Z,6.19
2023-02-20T18:33:02.134Z,6.21
2023-02-20T18:35:29.424Z,6.21
2023-02-20T18:37:56.349Z,6.22
2023-02-20T18:40:24.292Z,6.33
2023-02-20T18:42:51.999Z,6.37
2023-02-20T18:45:21.729Z,6.38
2023-02-20T18:47:51.859Z,6.47
2023-02-20T18:50:20.377Z,6.51
2023-02-20T18:52:48.782Z,6.54
2023-02-20T18:55:20.440Z,6.58
2023-02-20T18:57:49.950Z,6.59
2023-02-20T19:00:19.989Z,6.61
2023-02-20T19:02:49.182Z,6.64
2023-02-20T19:05:16.718Z,6.68
2023-02-20T19:07:45.299Z,6.70
2023-02-20T19:10:17.906Z,6.71
2023-02-20T19:12:44.980Z,6.74
2023-02-20T19:15:12.470Z,6.77
2023-02-20T19:17:39.564Z,6.80
2023-02-20T19:20:14.541Z,6.76
2023-02-20T19:22:41.588Z,6.75
2023-02-20T19:25:09.054Z,6.79
2023-02-20T19:27:35.925Z,6.78
2023-02-20T19:30:03.283Z,6.70
2023-02-20T19:32:30.324Z,6.69
2023-02-20T19:34:57.706Z,6.73
2023-02-20T19:37:24.677Z,6.81
2023-02-20T19:39:52.373Z,6.82
2023-02-20T19:42:19.399Z,6.87
2023-02-20T19:44:46.526Z,6.93
2023-02-20T19:47:15.351Z,6.95
2023-02-20T19:49:46.612Z,6.93
2023-02-20T19:52:13.526Z,6.94
2023-02-20T19:54:44.597Z,6.94
2023-02-20T19:57:12.425Z,6.98
2023-02-20T19:59:39.979Z,7.01
2023-02-20T20:02:07.079Z,7.05
2023-02-20T20:04:34.623Z,7.04
2023-02-20T20:07:05.214Z,7.12
2023-02-20T20:09:37.603Z,7.11
2023-02-20T20:12:27.368Z,7.15
2023-02-20T20:14:55.823Z,7.19
2023-02-20T20:17:22.693Z,7.22
2023-02-20T20:19:59.539Z,7.25
2023-02-20T20:22:28.796Z,7.25
2023-02-20T20:24:56.139Z,7.31
2023-02-20T20:27:23.736Z,7.29
2023-02-20T20:29:51.520Z,7.32
2023-02-20T20:32:21.007Z,7.34
2023-02-20T20:34:53.162Z,7.34
2023-02-20T20:37:27.588Z,7.38
2023-02-20T20:39:58.306Z,7.44
2023-02-20T20:42:27.194Z,7.57
2023-02-20T20:44:59.522Z,7.67
2023-02-20T20:47:29.117Z,7.79
2023-02-20T20:49:57.176Z,8.02
2023-02-20T20:52:27.298Z,8.31
2023-02-20T20:54:56.147Z,8.64
2023-02-20T20:57:26.715Z,8.84
2023-02-20T20:59:55.927Z,9.00
2023-02-20T21:02:23.370Z,9.11
2023-02-20T21:04:57.954Z,9.24
2023-02-20T21:07:34.849Z,9.28
2023-02-20T21:10:02.117Z,9.34
2023-02-20T21:12:28.975Z,9.42
2023-02-20T21:14:56.203Z,9.42
2023-02-20T21:17:23.092Z,9.40
2023-02-20T21:19:50.301Z,9.43
2023-02-20T21:22:17.176Z,9.45
2023-02-20T21:24:44.466Z,9.53
2023-02-20T21:27:11.369Z,9.51
2023-02-20T21:29:38.541Z,9.49
2023-02-20T21:32:05.439Z,9.47
2023-02-20T21:34:32.720Z,9.49
2023-02-20T21:37:00.097Z,9.51
2023-02-20T21:39:27.337Z,9.53
2023-02-20T21:42:12.745Z,9.51
2023-02-20T21:44:39.992Z,9.52
2023-02-20T21:47:09.709Z,9.49
2023-02-20T21:49:43.887Z,9.53
2023-02-20T22:07:48.715Z,9.64
2023-02-20T22:10:34.709Z,9.56
2023-02-20T22:13:20.080Z,9.44
2023-02-20T22:16:05.816Z,9.34
2023-02-20T22:18:51.368Z,9.28
2023-02-20T22:21:38.612Z,9.26
2023-02-20T22:24:30.603Z,9.23
2023-02-20T22:27:23.348Z,9.18
2023-02-20T22:30:08.994Z,9.18
2023-02-20T22:32:54.868Z,9.20
2023-02-20T22:35:40.460Z,9.21
2023-02-20T22:38:26.122Z,9.28
2023-02-20T22:41:11.911Z,9.36
2023-02-20T22:43:58.042Z,9.37
2023-02-20T22:46:43.310Z,9.36
2023-02-20T22:49:29.030Z,9.35
2023-02-20T22:52:14.669Z,9.34
2023-02-20T22:55:06.771Z,9.36
2023-02-20T22:57:53.108Z,9.35
2023-02-20T23:00:39.551Z,9.31
2023-02-20T23:03:24.959Z,9.33
2023-02-20T23:06:17.943Z,9.35
2023-02-20T23:09:08.104Z,9.32
2023-02-20T23:11:55.471Z,9.19
2023-02-20T23:14:41.888Z,9.19
2023-02-20T23:17:42.352Z,9.19
2023-02-20T23:20:32.164Z,9.19
2023-02-20T23:23:18.454Z,9.16
2023-02-20T23:26:04.124Z,9.14
2023-02-20T23:28:50.165Z,9.13
2023-02-20T23:31:36.973Z,9.15
2023-02-20T23:34:23.076Z,9.13
2023-02-20T23:37:11.264Z,9.11
2023-02-20T23:39:56.806Z,9.09
2023-02-20T23:42:42.515Z,9.11
2023-02-20T23:45:29.032Z,9.11
2023-02-20T23:48:14.425Z,9.08
2023-02-20T23:51:00.361Z,9.08
2023-02-20T23:53:46.125Z,9.09
2023-02-20T23:56:32.150Z,9.05
2023-02-20T23:59:17.580Z,9.11
